createdAt,value
2018-04-22T00:00:10.331Z,101337.22
2018-04-22T00:01:13.481Z,101338.33
2018-04-22T00:02:16.550Z,101337.98
2018-04-22T00:03:20.130Z,101333.59
2018-04-22T00:04:23.232Z,101335.97
2018-04-22T00:05:26.694Z,101330.23
2018-04-22T00:06:29.724Z,101335.27
2018-04-22T00:07:32.823Z,101334.96
2018-04-22T00:08:35.879Z,101327.88
2018-04-22T00:09:38.952Z,101325.27
2018-04-22T00:10:42.143Z,101319.88
2018-04-22T00:11:45.242Z,101320.88
2018-04-22T00:12:48.614Z,101316.45
2018-04-22T00:13:51.807Z,101320.56
2018-04-22T00:14:55.291Z,101312.06
2018-04-22T00:15:58.435Z,101310.80
2018-04-22T00:17:01.567Z,101315.76
2018-04-22T00:18:04.833Z,101314.48
2018-04-22T00:19:07.921Z,101310.03
2018-04-22T00:20:11.271Z,101306.59
2018-04-22T00:21:14.447Z,101310.71
2018-04-22T00:22:17.533Z,101306.72
2018-04-22T00:23:20.578Z,101302.37
2018-04-22T00:24:23.618Z,101298.83
2018-04-22T00:25:26.691Z,101298.91
2018-04-22T00:26:29.764Z,101297.63
2018-04-22T00:27:32.817Z,101297.21
2018-04-22T00:28:36.140Z,101294.09
2018-04-22T00:29:39.394Z,101288.82
2018-04-22T00:30:42.450Z,101285.28
2018-04-22T00:31:45.535Z,101286.12
2018-04-22T00:32:48.994Z,101284.44
2018-04-22T00:33:52.045Z,101280.21
2018-04-22T00:34:55.582Z,101278.87
2018-04-22T00:35:58.654Z,101280.21
2018-04-22T00:37:01.743Z,101281.98
2018-04-22T00:38:04.914Z,101276.59
2018-04-22T00:39:07.947Z,101274.83
2018-04-22T00:40:11.034Z,101276.17
2018-04-22T00:41:14.445Z,101272.25
2018-04-22T00:42:17.520Z,101272.25
2018-04-22T00:43:20.535Z,101268.70
2018-04-22T00:44:23.606Z,101267.02
2018-04-22T00:45:26.796Z,101267.44
2018-04-22T00:46:29.887Z,101266.09
2018-04-22T00:47:33.255Z,101266.28
2018-04-22T00:48:36.742Z,101260.97
2018-04-22T00:49:39.833Z,101266.93
2018-04-22T00:50:42.947Z,101262.16
2018-04-22T00:51:46.018Z,101255.81
2018-04-22T00:52:49.122Z,101258.20
2018-04-22T00:55:32.081Z,101255.41
2018-04-22T00:56:35.142Z,101247.34
2018-04-22T00:57:38.721Z,101252.80
2018-04-22T00:58:41.769Z,101245.57
2018-04-22T00:59:44.825Z,101252.30
2018-04-22T01:00:47.899Z,101249.69
2018-04-22T01:01:51.226Z,101247.10
2018-04-22T01:02:54.450Z,101237.26
2018-04-22T01:03:57.553Z,101236.41
2018-04-22T01:05:01.019Z,101239.18
2018-04-22T01:06:04.078Z,101236.06
2018-04-22T01:07:07.133Z,101236.56
2018-04-22T01:08:10.234Z,101234.38
2018-04-22T01:09:13.387Z,101237.98
2018-04-22T01:10:16.450Z,101244.72
2018-04-22T01:11:19.563Z,101236.75
2018-04-22T01:12:22.642Z,101234.98
2018-04-22T01:13:25.704Z,101233.71
2018-04-22T01:14:28.931Z,101236.41
2018-04-22T01:15:32.059Z,101242.70
2018-04-22T01:16:35.347Z,101239.59
2018-04-22T01:17:38.603Z,101231.52
2018-04-22T01:18:41.922Z,101231.09
2018-04-22T01:19:45.149Z,101232.87
2018-04-22T01:20:48.420Z,101228.83
2018-04-22T01:21:51.459Z,101229.25
2018-04-22T01:22:54.546Z,101224.72
2018-04-22T01:23:57.600Z,101224.72
2018-04-22T01:25:00.712Z,101220.25
2018-04-22T01:26:03.762Z,101232.37
2018-04-22T01:27:06.920Z,101224.80
2018-04-22T01:28:10.003Z,101223.02
2018-04-22T01:29:13.213Z,101222.18
2018-04-22T01:30:16.318Z,101225.41
2018-04-22T01:31:19.742Z,101229.09
2018-04-22T01:32:22.790Z,101218.41
2018-04-22T01:33:25.936Z,101219.41
2018-04-22T01:34:29.002Z,101215.48
2018-04-22T01:35:32.055Z,101214.20
2018-04-22T01:36:35.094Z,101218.40
2018-04-22T01:37:38.175Z,101214.05
2018-04-22T01:38:41.239Z,101215.97
2018-04-22T01:39:44.291Z,101209.39
2018-04-22T01:40:47.419Z,101206.89
2018-04-22T01:41:50.501Z,101208.31
2018-04-22T01:42:53.547Z,101205.27
2018-04-22T01:43:56.586Z,101220.49
2018-04-22T01:44:59.681Z,101206.62
2018-04-22T01:46:02.731Z,101208.08
2018-04-22T01:47:05.806Z,101212.19
2018-04-22T01:48:08.906Z,101207.80
2018-04-22T01:49:12.287Z,101205.96
2018-04-22T01:50:15.667Z,101208.30
2018-04-22T01:51:18.795Z,101204.45
2018-04-22T01:52:21.885Z,101204.45
2018-04-22T01:53:25.007Z,101201.10
2018-04-22T01:54:28.100Z,101202.52
2018-04-22T01:55:31.159Z,101199.91
2018-04-22T01:56:34.219Z,101202.17
2018-04-22T01:57:37.458Z,101202.75
2018-04-22T01:58:40.759Z,101201.09
2018-04-22T01:59:43.819Z,101198.48
2018-04-22T02:00:47.073Z,101197.13
2018-04-22T02:01:50.219Z,101206.30
2018-04-22T02:02:53.311Z,101200.08
2018-04-22T02:03:56.384Z,101200.73
2018-04-22T02:04:59.469Z,101201.23
2018-04-22T02:06:02.568Z,101200.92
2018-04-22T02:07:05.634Z,101199.65
2018-04-22T02:08:08.801Z,101203.34
2018-04-22T02:09:11.899Z,101199.80
2018-04-22T02:10:14.956Z,101203.02
2018-04-22T02:11:17.993Z,101197.64
2018-04-22T02:12:21.194Z,101201.25
2018-04-22T02:13:24.334Z,101195.38
2018-04-22T02:14:27.438Z,101190.81
2018-04-22T02:15:30.475Z,101190.81
2018-04-22T02:16:33.929Z,101193.08
2018-04-22T02:17:37.584Z,101194.03
2018-04-22T02:18:40.709Z,101187.38
2018-04-22T02:19:43.836Z,101188.80
2018-04-22T02:20:46.894Z,101186.11
2018-04-22T02:21:49.932Z,101188.03
2018-04-22T02:22:53.323Z,101180.15
2018-04-22T02:23:56.381Z,101177.95
2018-04-22T02:24:59.493Z,101180.30
2018-04-22T02:26:02.556Z,101176.37
2018-04-22T02:27:05.679Z,101179.06
2018-04-22T02:28:08.747Z,101177.30
2018-04-22T02:29:12.001Z,101180.91
2018-04-22T02:30:15.095Z,101179.98
2018-04-22T02:31:18.179Z,101177.38
2018-04-22T02:32:21.443Z,101171.15
2018-04-22T02:33:24.523Z,101172.92
2018-04-22T02:34:27.667Z,101173.27
2018-04-22T02:35:30.767Z,101168.80
2018-04-22T02:36:33.871Z,101165.27
2018-04-22T02:37:36.988Z,101162.58
2018-04-22T02:38:40.129Z,101165.27
2018-04-22T02:39:43.560Z,101168.38
2018-04-22T02:40:46.938Z,101163.42
2018-04-22T02:41:49.981Z,101166.12
2018-04-22T02:42:53.037Z,101161.23
2018-04-22T02:43:56.124Z,101159.89
2018-04-22T02:44:59.227Z,101162.09
2018-04-22T02:46:02.287Z,101162.58
2018-04-22T02:47:05.384Z,101161.31
2018-04-22T02:48:08.439Z,101155.70
2018-04-22T02:49:11.507Z,101150.89
2018-04-22T02:50:14.565Z,101149.63
2018-04-22T02:51:18.465Z,101149.81
2018-04-22T02:52:21.629Z,101148.55
2018-04-22T02:53:24.714Z,101144.16
2018-04-22T02:54:27.787Z,101148.69
2018-04-22T02:55:30.882Z,101144.77
2018-04-22T02:56:33.962Z,101140.39
2018-04-22T02:57:37.047Z,101143.16
2018-04-22T02:58:40.124Z,101143.66
2018-04-22T02:59:43.220Z,101142.07
2018-04-22T03:00:46.265Z,101145.68
2018-04-22T03:01:49.437Z,101145.33
2018-04-22T03:02:52.559Z,101139.30
2018-04-22T03:03:55.667Z,101137.60
2018-04-22T03:04:58.820Z,101134.17
2018-04-22T03:06:01.875Z,101132.88
2018-04-22T03:07:05.006Z,101134.80
2018-04-22T03:08:08.083Z,101133.21
2018-04-22T03:09:11.209Z,101131.94
2018-04-22T03:10:14.329Z,101128.06
2018-04-22T03:11:17.414Z,101132.20
2018-04-22T03:12:20.504Z,101129.66
2018-04-22T03:13:23.640Z,101132.35
2018-04-22T03:14:26.683Z,101128.50
2018-04-22T03:15:29.755Z,101130.23
2018-04-22T03:16:32.796Z,101125.70
2018-04-22T03:17:36.049Z,101124.36
2018-04-22T03:18:39.092Z,101119.91
2018-04-22T03:19:42.192Z,101120.75
2018-04-22T03:20:45.356Z,101119.91
2018-04-22T03:21:48.422Z,101115.45
2018-04-22T03:22:51.509Z,101112.69
2018-04-22T03:23:54.585Z,101108.66
2018-04-22T03:24:57.623Z,101105.97
2018-04-22T03:26:00.816Z,101111.95
2018-04-22T03:27:04.253Z,101106.23
2018-04-22T03:28:07.625Z,101105.81
2018-04-22T03:29:10.963Z,101103.20
2018-04-22T03:30:14.027Z,101103.27
2018-04-22T03:31:17.156Z,101101.61
2018-04-22T03:32:20.230Z,101098.58
2018-04-22T03:33:24.495Z,101088.51
2018-04-22T03:34:27.895Z,101098.77
2018-04-22T03:35:31.159Z,101094.81
2018-04-22T03:36:34.266Z,101089.50
2018-04-22T03:37:37.663Z,101089.08
2018-04-22T03:38:40.742Z,101087.31
2018-04-22T03:39:44.003Z,101087.31
2018-04-22T03:40:47.023Z,101083.78
2018-04-22T03:41:50.146Z,101088.31
2018-04-22T03:42:53.227Z,101086.97
2018-04-22T03:43:56.296Z,101074.06
2018-04-22T03:44:59.382Z,101075.91
2018-04-22T03:46:02.416Z,101075.56
2018-04-22T03:47:05.557Z,101068.84
2018-04-22T03:48:08.856Z,101074.22
2018-04-22T03:49:11.994Z,101077.90
2018-04-22T03:50:15.132Z,101074.40
2018-04-22T03:51:18.250Z,101068.18
2018-04-22T03:52:21.338Z,101065.98
2018-04-22T03:53:24.674Z,101071.44
2018-04-22T03:54:27.726Z,101067.83
2018-04-22T03:55:30.804Z,101067.83
2018-04-22T03:56:33.883Z,101067.33
2018-04-22T03:57:36.978Z,101061.12
2018-04-22T03:58:40.093Z,101061.53
2018-04-22T03:59:43.125Z,101065.49
2018-04-22T04:00:46.243Z,101065.07
2018-04-22T04:01:49.350Z,101063.72
2018-04-22T04:02:52.566Z,101066.84
2018-04-22T04:03:55.598Z,101064.04
2018-04-22T04:04:58.683Z,101069.84
2018-04-22T04:06:01.889Z,101059.09
2018-04-22T04:07:04.976Z,101061.70
2018-04-22T04:08:08.079Z,101059.52
2018-04-22T04:09:11.193Z,101060.43
2018-04-22T04:10:14.232Z,101055.48
2018-04-22T04:11:17.352Z,101053.64
2018-04-22T04:12:20.494Z,101054.06
2018-04-22T04:13:23.544Z,101048.61
2018-04-22T04:14:26.613Z,101054.33
2018-04-22T04:15:29.734Z,101050.30
2018-04-22T04:16:32.782Z,101045.73
2018-04-22T04:17:36.046Z,101046.00
2018-04-22T04:18:59.744Z,101040.63
2018-04-22T04:20:14.637Z,101044.08
2018-04-22T04:21:29.351Z,101038.78
2018-04-22T04:22:44.417Z,101033.06
2018-04-22T04:25:54.158Z,101035.08
2018-04-22T04:28:32.004Z,101033.50
2018-04-22T04:29:35.275Z,101028.78
2018-04-22T04:30:38.667Z,101028.45
2018-04-22T04:31:41.790Z,101032.75
2018-04-22T04:32:45.194Z,101033.06
2018-04-22T04:33:48.342Z,101032.91
2018-04-22T04:34:51.654Z,101029.19
2018-04-22T04:35:54.730Z,101031.30
2018-04-22T04:36:58.256Z,101028.96
2018-04-22T04:38:01.572Z,101031.39
2018-04-22T04:39:04.942Z,101033.08
2018-04-22T04:40:08.023Z,101034.73
2018-04-22T04:41:11.055Z,101040.37
2018-04-22T04:42:14.163Z,101037.19
2018-04-22T04:43:17.479Z,101039.69
2018-04-22T04:44:20.684Z,101040.89
2018-04-22T04:45:23.951Z,101041.62
2018-04-22T04:46:27.027Z,101039.28
2018-04-22T04:47:30.378Z,101042.66
2018-04-22T04:48:33.697Z,101041.97
2018-04-22T04:49:36.841Z,101041.31
2018-04-22T04:50:40.258Z,101042.02
2018-04-22T04:51:43.628Z,101039.06
2018-04-22T04:52:46.758Z,101041.06
2018-04-22T04:53:49.822Z,101037.72
2018-04-22T04:54:52.942Z,101038.98
2018-04-22T04:55:56.042Z,101028.97
2018-04-22T04:56:59.132Z,101037.37
2018-04-22T04:58:02.347Z,101027.36
2018-04-22T04:59:05.437Z,101034.42
2018-04-22T05:00:08.627Z,101030.13
2018-04-22T05:01:11.790Z,101030.31
2018-04-22T05:02:14.875Z,101024.75
2018-04-22T05:03:17.995Z,101025.52
2018-04-22T05:04:21.278Z,101027.52
2018-04-22T05:05:24.363Z,101019.30
2018-04-22T05:06:27.445Z,101021.37
2018-04-22T05:07:30.587Z,101017.68
2018-04-22T05:08:33.703Z,101018.52
2018-04-22T05:09:36.853Z,101013.56
2018-04-22T05:10:39.909Z,101016.18
2018-04-22T05:11:43.039Z,101013.48
2018-04-22T05:12:46.198Z,101014.91
2018-04-22T05:13:49.272Z,101012.64
2018-04-22T05:14:52.394Z,101016.76
2018-04-22T05:15:55.515Z,101017.68
2018-04-22T05:16:58.869Z,101019.45
2018-04-22T05:18:02.080Z,101024.83
2018-04-22T05:19:05.108Z,101025.67
2018-04-22T05:20:08.369Z,101024.75
2018-04-22T05:21:11.764Z,101015.76
2018-04-22T05:22:14.786Z,101030.44
2018-04-22T05:23:17.835Z,101021.87
2018-04-22T05:24:20.949Z,101020.02
2018-04-22T05:25:24.038Z,101018.10
2018-04-22T05:26:27.195Z,101022.87
2018-04-22T05:27:30.315Z,101016.99
2018-04-22T05:28:33.472Z,101023.56
2018-04-22T05:29:36.515Z,101018.49
2018-04-22T05:30:39.694Z,101024.63
2018-04-22T05:31:43.024Z,101019.17
2018-04-22T05:32:46.179Z,101022.21
2018-04-22T05:33:49.285Z,101021.02
2018-04-22T05:34:52.323Z,101020.75
2018-04-22T05:35:55.744Z,101016.03
2018-04-22T05:36:58.850Z,101018.63
2018-04-22T05:38:01.973Z,101013.05
2018-04-22T05:39:05.771Z,101020.77
2018-04-22T05:40:09.025Z,101014.81
2018-04-22T05:41:12.097Z,101017.73
2018-04-22T05:42:15.237Z,101017.16
2018-04-22T05:43:18.471Z,101015.23
2018-04-22T05:44:21.786Z,101016.33
2018-04-22T05:45:24.837Z,101020.20
2018-04-22T05:46:28.092Z,101008.13
2018-04-22T05:47:31.257Z,101008.40
2018-04-22T05:48:34.321Z,101002.67
2018-04-22T05:49:37.453Z,101005.78
2018-04-22T05:50:40.672Z,101007.52
2018-04-22T05:51:43.815Z,101002.83
2018-04-22T05:52:46.906Z,101003.66
2018-04-22T05:53:50.059Z,101007.05
2018-04-22T05:54:53.158Z,101003.31
2018-04-22T05:55:56.501Z,100999.53
2018-04-22T05:56:59.546Z,101005.44
2018-04-22T05:58:02.826Z,101007.70
2018-04-22T05:59:06.271Z,101002.84
2018-04-22T06:00:09.376Z,101001.25
2018-04-22T06:01:12.511Z,101003.30
2018-04-22T06:02:15.875Z,101004.87
2018-04-22T06:03:19.169Z,101002.89
2018-04-22T06:05:31.879Z,100996.05
2018-04-22T06:06:34.954Z,101002.25
2018-04-22T06:07:38.234Z,100998.42
2018-04-22T06:08:41.456Z,100994.67
2018-04-22T06:09:44.531Z,101001.51
2018-04-22T06:10:47.662Z,100994.99
2018-04-22T06:11:50.784Z,101000.59
2018-04-22T06:12:53.967Z,100996.77
2018-04-22T06:13:57.017Z,101003.48
2018-04-22T06:15:00.243Z,100994.76
2018-04-22T06:16:03.311Z,100996.70
2018-04-22T06:17:06.420Z,100999.45
2018-04-22T06:18:09.495Z,100996.68
2018-04-22T06:19:12.624Z,100994.52
2018-04-22T06:20:15.815Z,100993.33
2018-04-22T06:21:18.918Z,100993.96
2018-04-22T06:22:21.995Z,100995.53
2018-04-22T06:23:25.074Z,100997.97
2018-04-22T06:24:28.139Z,100993.73
2018-04-22T06:25:31.221Z,101004.17
2018-04-22T06:26:34.300Z,101004.70
2018-04-22T06:27:37.582Z,100995.44
2018-04-22T06:28:40.635Z,100994.41
2018-04-22T06:29:43.735Z,100993.66
2018-04-22T06:30:46.855Z,101006.20
2018-04-22T06:31:49.897Z,100993.36
2018-04-22T06:32:52.968Z,100986.89
2018-04-22T06:33:56.214Z,100988.23
2018-04-22T06:34:59.564Z,100995.44
2018-04-22T06:36:02.842Z,100994.67
2018-04-22T06:37:05.914Z,100989.87
2018-04-22T06:38:08.986Z,100990.56
2018-04-22T06:39:12.095Z,100986.47
2018-04-22T06:40:15.654Z,100987.20
2018-04-22T06:41:18.806Z,100985.30
2018-04-22T06:42:21.885Z,100986.23
2018-04-22T06:43:25.066Z,100986.95
2018-04-22T06:44:28.103Z,100987.88
2018-04-22T06:45:31.233Z,100985.92
2018-04-22T06:46:34.336Z,100985.71
2018-04-22T06:47:37.369Z,100981.11
2018-04-22T06:48:40.613Z,100981.80
2018-04-22T06:49:43.709Z,100984.86
2018-04-22T06:50:46.811Z,100982.98
2018-04-22T06:51:49.907Z,100985.34
2018-04-22T06:52:53.001Z,100985.42
2018-04-22T06:53:56.068Z,100982.39
2018-04-22T06:54:59.190Z,100989.50
2018-04-22T06:56:02.259Z,100990.20
2018-04-22T06:57:05.331Z,100985.83
2018-04-22T06:58:08.406Z,100982.59
2018-04-22T06:59:11.503Z,100983.98
2018-04-22T07:00:14.878Z,100983.97
2018-04-22T07:01:18.036Z,100983.20
2018-04-22T07:02:21.325Z,100982.89
2018-04-22T07:03:24.539Z,100985.03
2018-04-22T07:04:27.687Z,100980.66
2018-04-22T07:05:30.765Z,100983.63
2018-04-22T07:06:33.948Z,100980.89
2018-04-22T07:07:37.020Z,100983.91
2018-04-22T07:08:40.070Z,100982.43
2018-04-22T07:09:43.118Z,100979.23
2018-04-22T07:10:46.188Z,100977.66
2018-04-22T07:11:49.343Z,100979.94
2018-04-22T07:12:52.526Z,100985.33
2018-04-22T07:13:55.597Z,100983.03
2018-04-22T07:14:58.638Z,100984.66
2018-04-22T07:16:01.976Z,100980.59
2018-04-22T07:17:05.140Z,100984.75
2018-04-22T07:18:08.363Z,100982.26
2018-04-22T07:19:11.446Z,100986.63
2018-04-22T07:20:14.527Z,100980.05
2018-04-22T07:21:17.598Z,100983.67
2018-04-22T07:22:20.722Z,100979.59
2018-04-22T07:23:23.871Z,100979.48
2018-04-22T07:24:27.025Z,100980.08
2018-04-22T07:25:30.220Z,100981.23
2018-04-22T07:26:33.546Z,100981.41
2018-04-22T07:27:36.651Z,100984.54
2018-04-22T07:28:39.766Z,100980.06
2018-04-22T07:29:42.895Z,100988.30
2018-04-22T07:30:45.939Z,100983.91
2018-04-22T07:31:49.144Z,100990.44
2018-04-22T07:32:52.387Z,100981.52
2018-04-22T07:33:55.479Z,100985.66
2018-04-22T07:34:58.607Z,100991.17
2018-04-22T07:36:01.728Z,100991.17
2018-04-22T07:37:04.818Z,100986.36
2018-04-22T07:38:08.032Z,100993.25
2018-04-22T07:39:11.145Z,100993.86
2018-04-22T07:40:14.247Z,100991.24
2018-04-22T07:41:17.340Z,100988.63
2018-04-22T07:42:20.469Z,100986.88
2018-04-22T07:43:23.531Z,100991.03
2018-04-22T07:44:26.614Z,100987.07
2018-04-22T07:45:29.812Z,100988.52
2018-04-22T07:46:32.942Z,100984.97
2018-04-22T07:47:36.042Z,100983.61
2018-04-22T07:48:39.244Z,100981.23
2018-04-22T07:49:42.331Z,100981.33
2018-04-22T07:50:45.435Z,100976.75
2018-04-22T07:51:48.548Z,100975.82
2018-04-22T07:52:51.599Z,100973.20
2018-04-22T07:53:54.715Z,100969.98
2018-04-22T07:54:57.942Z,100966.77
2018-04-22T07:56:01.179Z,100970.83
2018-04-22T07:57:04.290Z,100966.34
2018-04-22T07:58:07.434Z,100966.86
2018-04-22T07:59:10.548Z,100965.00
2018-04-22T08:00:13.653Z,100961.27
2018-04-22T08:01:16.845Z,100968.23
2018-04-22T08:02:19.942Z,100967.72
2018-04-22T08:03:23.016Z,100971.60
2018-04-22T08:04:26.262Z,100964.29
2018-04-22T08:05:29.504Z,100965.87
2018-04-22T08:06:32.570Z,100962.15
2018-04-22T08:07:35.676Z,100966.92
2018-04-22T08:08:38.759Z,100961.00
2018-04-22T08:09:41.811Z,100959.55
2018-04-22T08:10:44.876Z,100960.69
2018-04-22T08:11:48.000Z,100956.95
2018-04-22T08:12:51.150Z,100958.22
2018-04-22T08:13:54.754Z,100958.55
2018-04-22T08:14:57.796Z,100957.07
2018-04-22T08:16:00.866Z,100960.20
2018-04-22T08:17:03.966Z,100959.59
2018-04-22T08:18:07.082Z,100962.20
2018-04-22T08:19:10.360Z,100962.08
2018-04-22T08:20:13.530Z,100960.73
2018-04-22T08:21:16.819Z,100954.20
2018-04-22T08:22:19.930Z,100954.10
2018-04-22T08:23:23.008Z,100952.33
2018-04-22T08:24:26.093Z,100956.91
2018-04-22T08:25:29.231Z,100959.70
2018-04-22T08:26:32.486Z,100956.48
2018-04-22T08:27:35.576Z,100955.64
2018-04-22T08:28:38.645Z,100953.87
2018-04-22T08:29:41.718Z,100953.36
2018-04-22T08:30:44.918Z,100956.58
2018-04-22T08:31:47.991Z,100954.71
2018-04-22T08:32:51.460Z,100950.23
2018-04-22T08:33:54.546Z,100947.85
2018-04-22T08:34:57.866Z,100950.05
2018-04-22T08:36:00.923Z,100958.46
2018-04-22T08:37:04.062Z,100953.98
2018-04-22T08:38:07.104Z,100952.53
2018-04-22T08:39:10.191Z,100953.70
2018-04-22T08:40:13.551Z,100957.12
2018-04-22T08:41:16.602Z,100956.52
2018-04-22T08:42:19.712Z,100958.20
2018-04-22T08:43:22.849Z,100954.44
2018-04-22T08:44:26.247Z,100956.12
2018-04-22T08:45:29.406Z,100956.45
2018-04-22T08:46:32.654Z,100956.32
2018-04-22T08:47:35.743Z,100957.16
2018-04-22T08:48:38.891Z,100954.88
2018-04-22T08:49:42.064Z,100956.65
2018-04-22T08:50:45.170Z,100952.91
2018-04-22T08:51:48.257Z,100955.11
2018-04-22T08:52:51.366Z,100957.59
2018-04-22T08:53:54.663Z,100957.50
2018-04-22T08:54:57.770Z,100961.77
2018-04-22T08:56:00.840Z,100958.97
2018-04-22T08:57:03.907Z,100958.27
2018-04-22T08:58:06.991Z,100962.02
2018-04-22T08:59:10.113Z,100955.87
2018-04-22T09:00:13.291Z,100959.75
2018-04-22T09:01:16.377Z,100963.50
2018-04-22T09:02:19.487Z,100958.73
2018-04-22T09:03:22.565Z,100951.14
2018-04-22T09:04:25.635Z,100957.20
2018-04-22T09:05:29.022Z,100959.51
2018-04-22T09:06:32.324Z,100957.33
2018-04-22T09:07:35.523Z,100959.63
2018-04-22T09:08:38.646Z,100957.58
2018-04-22T09:09:41.759Z,100952.35
2018-04-22T09:10:44.849Z,100955.91
2018-04-22T09:11:48.178Z,100949.45
2018-04-22T09:12:51.402Z,100950.17
2018-04-22T09:13:54.462Z,100947.37
2018-04-22T09:14:57.645Z,100948.63
2018-04-22T09:16:00.742Z,100950.70
2018-04-22T09:17:03.798Z,100944.25
2018-04-22T09:18:06.858Z,100950.93
2018-04-22T09:19:09.986Z,100945.29
2018-04-22T09:20:13.068Z,100951.55
2018-04-22T09:21:16.131Z,100949.68
2018-04-22T09:22:19.321Z,100950.84
2018-04-22T09:23:22.414Z,100947.20
2018-04-22T09:24:25.510Z,100950.11
2018-04-22T09:25:28.680Z,100938.34
2018-04-22T09:26:31.806Z,100941.79
2018-04-22T09:27:34.947Z,100940.31
2018-04-22T09:28:38.023Z,100936.57
2018-04-22T09:29:41.124Z,100940.31
2018-04-22T09:30:44.258Z,100942.41
2018-04-22T09:31:47.338Z,100940.33
2018-04-22T09:32:50.421Z,100945.55
2018-04-22T09:33:53.486Z,100946.17
2018-04-22T09:34:56.565Z,100948.18
2018-04-22T09:36:00.655Z,100945.77
2018-04-22T09:37:03.703Z,100943.28
2018-04-22T09:38:06.759Z,100947.03
2018-04-22T09:39:09.808Z,100947.26
2018-04-22T09:40:12.917Z,100942.45
2018-04-22T09:41:16.019Z,100949.84
2018-04-22T09:42:19.130Z,100949.14
2018-04-22T09:43:22.207Z,100947.98
2018-04-22T09:44:25.306Z,100952.05
2018-04-22T09:45:28.385Z,100952.28
2018-04-22T09:46:31.534Z,100954.48
2018-04-22T09:47:34.737Z,100948.65
2018-04-22T09:48:37.860Z,100944.20
2018-04-22T09:49:41.035Z,100944.20
2018-04-22T09:50:44.248Z,100948.69
2018-04-22T09:51:47.328Z,100945.85
2018-04-22T09:52:50.419Z,100942.11
2018-04-22T09:53:53.632Z,100942.30
2018-04-22T09:54:56.678Z,100945.77
2018-04-22T09:55:59.884Z,100948.47
2018-04-22T09:57:02.981Z,100938.56
2018-04-22T09:58:06.165Z,100937.10
2018-04-22T09:59:09.215Z,100934.70
2018-04-22T10:01:48.267Z,100928.72
2018-04-22T10:02:51.318Z,100924.97
2018-04-22T10:03:56.214Z,100922.47
2018-04-22T10:05:04.875Z,100919.63
2018-04-22T10:06:07.931Z,100913.08
2018-04-22T10:07:11.060Z,100905.64
2018-04-22T10:08:14.183Z,100906.79
2018-04-22T10:09:17.295Z,100905.84
2018-04-22T10:10:20.379Z,100901.14
2018-04-22T10:11:23.491Z,100903.52
2018-04-22T10:12:26.606Z,100904.77
